sensor_id;sensor_type;location;lat;lon;timestamp;pressure;altitude;pressure_sealevel;temperature;humidity
7748;BME280;3918;42.564;23.164;2022-09-19T05:02:33;-11650.84;;;-142.29;96.39
7748;BME280;3918;42.564;23.164;2022-09-19T05:05:01;-11650.84;;;-142.29;82.23
7748;BME280;3918;42.564;23.164;2022-09-19T05:07:28;-11650.84;;;-142.29;80.80
7748;BME280;3918;42.564;23.164;2022-09-19T05:09:58;-11650.84;;;-142.29;75.04
7748;BME280;3918;42.564;23.164;2022-09-19T05:12:25;-11650.84;;;-142.29;65.74
7748;BME280;3918;42.564;23.164;2022-09-19T05:14:53;-11650.84;;;-142.29;60.25
7748;BME280;3918;42.564;23.164;2022-09-19T05:17:20;-11650.84;;;-142.29;56.63
7748;BME280;3918;42.564;23.164;2022-09-19T05:19:49;-11650.84;;;-142.29;54.20
7748;BME280;3918;42.564;23.164;2022-09-19T05:22:15;-11650.84;;;-142.29;53.18
7748;BME280;3918;42.564;23.164;2022-09-19T05:24:42;-11650.84;;;-142.29;51.41
7748;BME280;3918;42.564;23.164;2022-09-19T05:27:09;-11650.84;;;-142.29;50.37
7748;BME280;3918;42.564;23.164;2022-09-19T05:29:37;-11650.84;;;-142.29;49.00
7748;BME280;3918;42.564;23.164;2022-09-19T05:32:05;-11650.84;;;-142.29;47.37
7748;BME280;3918;42.564;23.164;2022-09-19T05:34:31;-11650.84;;;-142.29;46.00
7748;BME280;3918;42.564;23.164;2022-09-19T05:36:59;-11650.84;;;-142.29;44.57
7748;BME280;3918;42.564;23.164;2022-09-19T05:39:26;-11650.84;;;-142.29;43.94
7748;BME280;3918;42.564;23.164;2022-09-19T05:41:53;-11650.84;;;-142.29;42.59
7748;BME280;3918;42.564;23.164;2022-09-19T05:44:20;-11650.84;;;-142.29;43.36
7748;BME280;3918;42.564;23.164;2022-09-19T05:46:48;-11650.84;;;-142.29;42.66
7748;BME280;3918;42.564;23.164;2022-09-19T05:49:18;-11650.84;;;-142.29;42.51
7748;BME280;3918;42.564;23.164;2022-09-19T05:51:45;-11650.84;;;-142.29;39.69
7748;BME280;3918;42.564;23.164;2022-09-19T05:54:13;-11650.84;;;-142.29;40.17
7748;BME280;3918;42.564;23.164;2022-09-19T05:56:38;-11650.84;;;-142.29;40.13
7748;BME280;3918;42.564;23.164;2022-09-19T05:59:05;-11650.84;;;-142.29;39.88
7748;BME280;3918;42.564;23.164;2022-09-19T06:01:33;-11650.84;;;-142.29;39.91
7748;BME280;3918;42.564;23.164;2022-09-19T06:04:01;-11650.84;;;-142.29;38.28
7748;BME280;3918;42.564;23.164;2022-09-19T06:06:28;-11650.84;;;-142.29;38.20
7748;BME280;3918;42.564;23.164;2022-09-19T06:08:56;-11650.84;;;-142.29;37.50
7748;BME280;3918;42.564;23.164;2022-09-19T06:11:26;-11650.84;;;-142.29;37.25
7748;BME280;3918;42.564;23.164;2022-09-19T06:13:53;-11650.84;;;-142.29;35.63
7748;BME280;3918;42.564;23.164;2022-09-19T06:16:37;-11650.84;;;-142.29;33.47
7748;BME280;3918;42.564;23.164;2022-09-19T06:19:05;-11650.84;;;-142.29;34.38
7748;BME280;3918;42.564;23.164;2022-09-19T06:21:31;-11650.84;;;-142.29;33.43
7748;BME280;3918;42.564;23.164;2022-09-19T06:23:58;-11650.84;;;-142.29;31.96
7748;BME280;3918;42.564;23.164;2022-09-19T06:26:28;-11650.84;;;-142.29;31.58
7748;BME280;3918;42.564;23.164;2022-09-19T06:28:55;-11650.84;;;-142.29;30.01
7748;BME280;3918;42.564;23.164;2022-09-19T06:31:22;-11650.84;;;-142.29;29.77
7748;BME280;3918;42.564;23.164;2022-09-19T06:33:49;-11650.84;;;-142.29;30.57
7748;BME280;3918;42.564;23.164;2022-09-19T06:36:15;-11650.84;;;-142.29;30.94
7748;BME280;3918;42.564;23.164;2022-09-19T06:38:42;-11650.84;;;-142.29;31.45
7748;BME280;3918;42.564;23.164;2022-09-19T06:41:09;-11650.84;;;-142.29;32.44
7748;BME280;3918;42.564;23.164;2022-09-19T06:43:38;-11650.84;;;-142.29;31.86
7748;BME280;3918;42.564;23.164;2022-09-19T06:46:05;-11650.84;;;-142.29;32.27
7748;BME280;3918;42.564;23.164;2022-09-19T06:48:32;-11650.84;;;-142.29;32.39
7748;BME280;3918;42.564;23.164;2022-09-19T06:51:00;-11650.84;;;-142.29;32.77
7748;BME280;3918;42.564;23.164;2022-09-19T06:53:27;-11650.84;;;-142.29;32.29
7748;BME280;3918;42.564;23.164;2022-09-19T06:55:54;-11650.84;;;-142.29;32.98
7748;BME280;3918;42.564;23.164;2022-09-19T06:58:21;-11650.84;;;-142.29;33.24
7748;BME280;3918;42.564;23.164;2022-09-19T07:00:50;-11650.84;;;-142.29;33.97
7748;BME280;3918;42.564;23.164;2022-09-19T07:03:17;-11650.84;;;-142.29;33.92
7748;BME280;3918;42.564;23.164;2022-09-19T07:05:45;-11650.84;;;-142.29;34.63
7748;BME280;3918;42.564;23.164;2022-09-19T07:08:13;-11650.84;;;-142.29;35.41
7748;BME280;3918;42.564;23.164;2022-09-19T07:10:40;-11650.84;;;-142.29;37.31
7748;BME280;3918;42.564;23.164;2022-09-19T07:13:09;-11650.84;;;-142.29;35.97
7748;BME280;3918;42.564;23.164;2022-09-19T07:15:38;-11650.84;;;-142.29;36.25
7748;BME280;3918;42.564;23.164;2022-09-19T07:18:07;-11650.84;;;-142.29;36.57
7748;BME280;3918;42.564;23.164;2022-09-19T07:20:36;-11650.84;;;-142.29;36.60
7748;BME280;3918;42.564;23.164;2022-09-19T07:23:04;-11650.84;;;-142.29;35.53
7748;BME280;3918;42.564;23.164;2022-09-19T07:25:33;-11650.84;;;-142.29;35.08
7748;BME280;3918;42.564;23.164;2022-09-19T07:28:01;-11650.84;;;-142.29;34.73
7748;BME280;3918;42.564;23.164;2022-09-19T07:30:28;-11650.84;;;-142.29;34.01
7748;BME280;3918;42.564;23.164;2022-09-19T07:32:56;-11650.84;;;-142.29;34.40
7748;BME280;3918;42.564;23.164;2022-09-19T07:35:25;-11650.84;;;-142.29;35.11
7748;BME280;3918;42.564;23.164;2022-09-19T07:37:53;-11650.84;;;-142.29;35.22
7748;BME280;3918;42.564;23.164;2022-09-19T07:40:20;-11650.84;;;-142.29;35.46
7748;BME280;3918;42.564;23.164;2022-09-19T07:42:47;-11650.84;;;-142.29;35.49
7748;BME280;3918;42.564;23.164;2022-09-19T07:45:16;-11650.84;;;-142.29;36.27
7748;BME280;3918;42.564;23.164;2022-09-19T07:47:44;-11650.84;;;-142.29;36.68
7748;BME280;3918;42.564;23.164;2022-09-19T07:50:11;-11650.84;;;-142.29;36.86
7748;BME280;3918;42.564;23.164;2022-09-19T07:52:41;-11650.84;;;-142.29;34.40
7748;BME280;3918;42.564;23.164;2022-09-19T07:55:08;-11650.84;;;-142.29;36.08
7748;BME280;3918;42.564;23.164;2022-09-19T07:57:36;-11650.84;;;-142.29;35.07
7748;BME280;3918;42.564;23.164;2022-09-19T08:00:04;-11650.84;;;-142.29;35.33
7748;BME280;3918;42.564;23.164;2022-09-19T08:02:32;-11650.84;;;-142.29;33.59
7748;BME280;3918;42.564;23.164;2022-09-19T08:04:59;-11650.84;;;-142.29;34.75
7748;BME280;3918;42.564;23.164;2022-09-19T08:07:26;-11650.84;;;-142.29;34.51
7748;BME280;3918;42.564;23.164;2022-09-19T08:09:54;-11650.84;;;-142.29;34.16
7748;BME280;3918;42.564;23.164;2022-09-19T08:12:20;-11650.84;;;-142.29;35.07
7748;BME280;3918;42.564;23.164;2022-09-19T08:14:47;-11650.84;;;-142.29;35.84
7748;BME280;3918;42.564;23.164;2022-09-19T08:17:14;-11650.84;;;-142.29;34.67
7748;BME280;3918;42.564;23.164;2022-09-19T08:19:41;-11650.84;;;-142.29;34.91
7748;BME280;3918;42.564;23.164;2022-09-19T08:22:08;-11650.84;;;-142.29;34.93
7748;BME280;3918;42.564;23.164;2022-09-19T08:24:35;-11650.84;;;-142.29;37.00
7748;BME280;3918;42.564;23.164;2022-09-19T08:27:04;-11650.84;;;-142.29;36.90
7748;BME280;3918;42.564;23.164;2022-09-19T08:29:30;-11650.84;;;-142.29;36.20
7748;BME280;3918;42.564;23.164;2022-09-19T08:31:58;-11650.84;;;-142.29;36.59
7748;BME280;3918;42.564;23.164;2022-09-19T08:34:25;-11650.84;;;-142.29;36.14
7748;BME280;3918;42.564;23.164;2022-09-19T08:36:52;-11650.84;;;-142.29;35.88
7748;BME280;3918;42.564;23.164;2022-09-19T08:39:24;-11650.84;;;-142.29;37.00
7748;BME280;3918;42.564;23.164;2022-09-19T08:42:05;-11650.84;;;-142.29;36.82
7748;BME280;3918;42.564;23.164;2022-09-19T08:44:48;-11650.84;;;-142.29;36.79
7748;BME280;3918;42.564;23.164;2022-09-19T08:47:18;-11650.84;;;-142.29;37.83
7748;BME280;3918;42.564;23.164;2022-09-19T08:49:50;-11650.84;;;-142.29;37.01
7748;BME280;3918;42.564;23.164;2022-09-19T08:52:28;-11650.84;;;-142.29;36.79
7748;BME280;3918;42.564;23.164;2022-09-19T08:54:57;-11650.84;;;-142.29;38.57
7748;BME280;3918;42.564;23.164;2022-09-19T08:57:29;-11650.84;;;-142.29;37.93
7748;BME280;3918;42.564;23.164;2022-09-19T09:00:02;-11650.84;;;-142.29;38.26
7748;BME280;3918;42.564;23.164;2022-09-19T09:02:37;-11650.84;;;-142.29;38.96
7748;BME280;3918;42.564;23.164;2022-09-19T09:05:11;-11650.84;;;-142.29;39.96
7748;BME280;3918;42.564;23.164;2022-09-19T09:07:47;-11650.84;;;-142.29;39.64
7748;BME280;3918;42.564;23.164;2022-09-19T09:10:36;-11650.84;;;-142.29;38.04
7748;BME280;3918;42.564;23.164;2022-09-19T09:13:18;-11650.84;;;-142.29;39.71
7748;BME280;3918;42.564;23.164;2022-09-19T09:15:57;-11650.84;;;-142.29;40.55
7748;BME280;3918;42.564;23.164;2022-09-19T09:18:41;-11650.84;;;-142.29;42.13
7748;BME280;3918;42.564;23.164;2022-09-19T09:21:15;-11650.84;;;-142.29;43.50
7748;BME280;3918;42.564;23.164;2022-09-19T09:23:46;-11650.84;;;-142.29;41.83
7748;BME280;3918;42.564;23.164;2022-09-19T09:26:16;-11650.84;;;-142.29;43.73
7748;BME280;3918;42.564;23.164;2022-09-19T09:28:49;-11650.84;;;-142.29;40.37
7748;BME280;3918;42.564;23.164;2022-09-19T09:31:19;-11650.84;;;-142.29;40.59
7748;BME280;3918;42.564;23.164;2022-09-19T09:33:53;-11650.84;;;-142.29;44.88
7748;BME280;3918;42.564;23.164;2022-09-19T09:36:24;-11650.84;;;-142.29;41.94
7748;BME280;3918;42.564;23.164;2022-09-19T09:39:00;-11650.84;;;-142.29;43.03
7748;BME280;3918;42.564;23.164;2022-09-19T09:41:34;-11650.84;;;-142.29;43.09
7748;BME280;3918;42.564;23.164;2022-09-19T09:44:23;-11650.84;;;-142.29;44.45
7748;BME280;3918;42.564;23.164;2022-09-19T09:46:57;-11650.84;;;-142.29;43.21
7748;BME280;3918;42.564;23.164;2022-09-19T09:49:29;-11650.84;;;-142.29;42.62
7748;BME280;3918;42.564;23.164;2022-09-19T09:52:05;-11650.84;;;-142.29;42.21
7748;BME280;3918;42.564;23.164;2022-09-19T09:54:53;-11650.84;;;-142.29;43.43
7748;BME280;3918;42.564;23.164;2022-09-19T09:57:47;-11650.84;;;-142.29;41.37
7748;BME280;3918;42.564;23.164;2022-09-19T10:00:19;-11650.84;;;-142.29;43.78
7748;BME280;3918;42.564;23.164;2022-09-19T10:03:13;-11650.84;;;-142.29;44.57
7748;BME280;3918;42.564;23.164;2022-09-19T10:06:07;-11650.84;;;-142.29;43.22
7748;BME280;3918;42.564;23.164;2022-09-19T10:08:38;-11650.84;;;-142.29;43.70
7748;BME280;3918;42.564;23.164;2022-09-19T10:11:12;-11650.84;;;-142.29;39.61
7748;BME280;3918;42.564;23.164;2022-09-19T10:13:45;-11650.84;;;-142.29;38.17
7748;BME280;3918;42.564;23.164;2022-09-19T10:16:19;-11650.84;;;-142.29;40.36
7748;BME280;3918;42.564;23.164;2022-09-19T10:18:49;-11650.84;;;-142.29;40.68
7748;BME280;3918;42.564;23.164;2022-09-19T10:21:17;-11650.84;;;-142.29;38.82
7748;BME280;3918;42.564;23.164;2022-09-19T10:23:44;-11650.84;;;-142.29;39.46
7748;BME280;3918;42.564;23.164;2022-09-19T10:26:13;-11650.84;;;-142.29;40.89
7748;BME280;3918;42.564;23.164;2022-09-19T10:28:48;-11650.84;;;-142.29;41.87
7748;BME280;3918;42.564;23.164;2022-09-19T10:31:29;-11650.84;;;-142.29;39.36
7748;BME280;3918;42.564;23.164;2022-09-19T10:33:58;-11650.84;;;-142.29;40.31
7748;BME280;3918;42.564;23.164;2022-09-19T10:36:29;-11650.84;;;-142.29;38.47
7748;BME280;3918;42.564;23.164;2022-09-19T10:39:07;-11650.84;;;-142.29;40.48
7748;BME280;3918;42.564;23.164;2022-09-19T10:41:35;-11650.84;;;-142.29;40.37
7748;BME280;3918;42.564;23.164;2022-09-19T10:44:05;-11650.84;;;-142.29;39.99
7748;BME280;3918;42.564;23.164;2022-09-19T10:46:43;-11650.84;;;-142.29;38.74
7748;BME280;3918;42.564;23.164;2022-09-19T10:49:16;-11650.84;;;-142.29;38.75
7748;BME280;3918;42.564;23.164;2022-09-19T10:51:47;-11650.84;;;-142.29;37.76
7748;BME280;3918;42.564;23.164;2022-09-19T10:54:27;-11650.84;;;-142.29;39.08
7748;BME280;3918;42.564;23.164;2022-09-19T10:56:58;-11650.84;;;-142.29;40.04
7748;BME280;3918;42.564;23.164;2022-09-19T10:59:28;-11650.84;;;-142.29;39.73
7748;BME280;3918;42.564;23.164;2022-09-19T11:02:18;-11650.84;;;-142.29;39.23
7748;BME280;3918;42.564;23.164;2022-09-19T11:04:52;-11650.84;;;-142.29;38.43
7748;BME280;3918;42.564;23.164;2022-09-19T11:07:23;-11650.84;;;-142.29;40.55
7748;BME280;3918;42.564;23.164;2022-09-19T11:09:55;-11650.84;;;-142.29;39.68
7748;BME280;3918;42.564;23.164;2022-09-19T11:12:25;-11650.84;;;-142.29;39.72
7748;BME280;3918;42.564;23.164;2022-09-19T11:14:53;-11650.84;;;-142.29;40.76
7748;BME280;3918;42.564;23.164;2022-09-19T11:17:45;-11650.84;;;-142.29;41.07
7748;BME280;3918;42.564;23.164;2022-09-19T11:20:22;-11650.84;;;-142.29;38.64
7748;BME280;3918;42.564;23.164;2022-09-19T11:23:30;-11650.84;;;-142.29;40.15
7748;BME280;3918;42.564;23.164;2022-09-19T11:26:04;-11650.84;;;-142.29;39.23
7748;BME280;3918;42.564;23.164;2022-09-19T11:28:43;-11650.84;;;-142.29;37.53
7748;BME280;3918;42.564;23.164;2022-09-19T11:31:18;-11650.84;;;-142.29;37.69
7748;BME280;3918;42.564;23.164;2022-09-19T11:33:54;-11650.84;;;-142.29;38.12
7748;BME280;3918;42.564;23.164;2022-09-19T11:36:38;-11650.84;;;-142.29;40.20
7748;BME280;3918;42.564;23.164;2022-09-19T11:39:15;-11650.84;;;-142.29;38.52
7748;BME280;3918;42.564;23.164;2022-09-19T11:41:51;-11650.84;;;-142.29;37.97
7748;BME280;3918;42.564;23.164;2022-09-19T11:44:34;-11650.84;;;-142.29;40.79
7748;BME280;3918;42.564;23.164;2022-09-19T11:47:22;-11650.84;;;-142.29;38.98
7748;BME280;3918;42.564;23.164;2022-09-19T11:55:58;-11650.84;;;-142.29;39.69
7748;BME280;3918;42.564;23.164;2022-09-19T11:58:32;-11650.84;;;-142.29;41.05
7748;BME280;3918;42.564;23.164;2022-09-19T12:01:10;-11650.84;;;-142.29;40.44
7748;BME280;3918;42.564;23.164;2022-09-19T12:03:50;-11650.84;;;-142.29;41.58
7748;BME280;3918;42.564;23.164;2022-09-19T12:06:47;-11650.84;;;-142.29;40.83
7748;BME280;3918;42.564;23.164;2022-09-19T12:09:23;-11650.84;;;-142.29;40.11
7748;BME280;3918;42.564;23.164;2022-09-19T12:11:56;-11650.84;;;-142.29;42.15
7748;BME280;3918;42.564;23.164;2022-09-19T12:14:27;-11650.84;;;-142.29;40.87
7748;BME280;3918;42.564;23.164;2022-09-19T12:16:58;-11650.84;;;-142.29;41.36
7748;BME280;3918;42.564;23.164;2022-09-19T12:19:31;-11650.84;;;-142.29;40.87
7748;BME280;3918;42.564;23.164;2022-09-19T12:22:08;-11650.84;;;-142.29;41.18
7748;BME280;3918;42.564;23.164;2022-09-19T12:24:42;-11650.84;;;-142.29;40.91
7748;BME280;3918;42.564;23.164;2022-09-19T12:27:22;-11650.84;;;-142.29;41.40
7748;BME280;3918;42.564;23.164;2022-09-19T12:29:57;-11650.84;;;-142.29;41.92
7748;BME280;3918;42.564;23.164;2022-09-19T12:32:34;-11650.84;;;-142.29;42.35
7748;BME280;3918;42.564;23.164;2022-09-19T12:35:11;-11650.84;;;-142.29;42.86
7748;BME280;3918;42.564;23.164;2022-09-19T12:37:50;-11650.84;;;-142.29;41.59
7748;BME280;3918;42.564;23.164;2022-09-19T12:40:25;-11650.84;;;-142.29;42.78
7748;BME280;3918;42.564;23.164;2022-09-19T12:42:59;-11650.84;;;-142.29;43.02
7748;BME280;3918;42.564;23.164;2022-09-19T12:45:32;-11650.84;;;-142.29;42.58
7748;BME280;3918;42.564;23.164;2022-09-19T12:48:08;-11650.84;;;-142.29;42.53
7748;BME280;3918;42.564;23.164;2022-09-19T12:50:42;-11650.84;;;-142.29;41.77
7748;BME280;3918;42.564;23.164;2022-09-19T12:53:22;-11650.84;;;-142.29;42.25
7748;BME280;3918;42.564;23.164;2022-09-19T12:55:59;-11650.84;;;-142.29;42.37
7748;BME280;3918;42.564;23.164;2022-09-19T12:58:32;-11650.84;;;-142.29;43.22
7748;BME280;3918;42.564;23.164;2022-09-19T13:01:14;-11650.84;;;-142.29;42.59
7748;BME280;3918;42.564;23.164;2022-09-19T13:03:45;-11650.84;;;-142.29;41.04
7748;BME280;3918;42.564;23.164;2022-09-19T13:06:18;-11650.84;;;-142.29;42.32
7748;BME280;3918;42.564;23.164;2022-09-19T13:08:50;-11650.84;;;-142.29;43.50
7748;BME280;3918;42.564;23.164;2022-09-19T13:11:25;-11650.84;;;-142.29;43.33
7748;BME280;3918;42.564;23.164;2022-09-19T13:13:59;-11650.84;;;-142.29;42.62
7748;BME280;3918;42.564;23.164;2022-09-19T13:16:32;-11650.84;;;-142.29;41.91
7748;BME280;3918;42.564;23.164;2022-09-19T13:18:59;-11650.84;;;-142.29;44.08
7748;BME280;3918;42.564;23.164;2022-09-19T13:21:45;-11650.84;;;-142.29;43.76
7748;BME280;3918;42.564;23.164;2022-09-19T13:24:38;-11650.84;;;-142.29;42.66
7748;BME280;3918;42.564;23.164;2022-09-19T13:27:20;-11650.84;;;-142.29;42.96
7748;BME280;3918;42.564;23.164;2022-09-19T13:29:47;-11650.84;;;-142.29;43.14
7748;BME280;3918;42.564;23.164;2022-09-19T13:32:30;-11650.84;;;-142.29;42.42
7748;BME280;3918;42.564;23.164;2022-09-19T13:35:16;-11650.84;;;-142.29;43.05
7748;BME280;3918;42.564;23.164;2022-09-19T13:38:16;-11650.84;;;-142.29;42.90
7748;BME280;3918;42.564;23.164;2022-09-19T13:40:56;-11650.84;;;-142.29;43.06
7748;BME280;3918;42.564;23.164;2022-09-19T13:43:46;-11650.84;;;-142.29;42.70
7748;BME280;3918;42.564;23.164;2022-09-19T13:46:19;-11650.84;;;-142.29;43.82
7748;BME280;3918;42.564;23.164;2022-09-19T13:48:49;-11650.84;;;-142.29;42.43
7748;BME280;3918;42.564;23.164;2022-09-19T13:51:28;-11650.84;;;-142.29;41.99
7748;BME280;3918;42.564;23.164;2022-09-19T13:54:29;-11650.84;;;-142.29;41.67
7748;BME280;3918;42.564;23.164;2022-09-19T13:57:05;-11650.84;;;-142.29;41.74
7748;BME280;3918;42.564;23.164;2022-09-19T13:59:37;-11650.84;;;-142.29;41.02
7748;BME280;3918;42.564;23.164;2022-09-19T14:02:19;-11650.84;;;-142.29;41.99
7748;BME280;3918;42.564;23.164;2022-09-19T14:04:52;-11650.84;;;-142.29;41.90
7748;BME280;3918;42.564;23.164;2022-09-19T14:07:26;-11650.84;;;-142.29;41.74
7748;BME280;3918;42.564;23.164;2022-09-19T14:09:55;-11650.84;;;-142.29;40.94
7748;BME280;3918;42.564;23.164;2022-09-19T14:12:52;-11650.84;;;-142.29;40.85
7748;BME280;3918;42.564;23.164;2022-09-19T14:15:47;-11650.84;;;-142.29;40.61
7748;BME280;3918;42.564;23.164;2022-09-19T14:18:40;-11650.84;;;-142.29;40.80
7748;BME280;3918;42.564;23.164;2022-09-19T14:21:09;-11650.84;;;-142.29;41.10
7748;BME280;3918;42.564;23.164;2022-09-19T14:23:38;-11650.84;;;-142.29;40.34
7748;BME280;3918;42.564;23.164;2022-09-19T14:29:14;-11650.84;;;-142.29;41.34
7748;BME280;3918;42.564;23.164;2022-09-19T14:31:54;-11650.84;;;-142.29;41.36
7748;BME280;3918;42.564;23.164;2022-09-19T14:34:42;-11650.84;;;-142.29;41.17
7748;BME280;3918;42.564;23.164;2022-09-19T14:37:42;-11650.84;;;-142.29;40.92
7748;BME280;3918;42.564;23.164;2022-09-19T14:40:20;-11650.84;;;-142.29;41.24
7748;BME280;3918;42.564;23.164;2022-09-19T14:43:04;-11650.84;;;-142.29;41.65
7748;BME280;3918;42.564;23.164;2022-09-19T14:45:54;-11650.84;;;-142.29;41.40
7748;BME280;3918;42.564;23.164;2022-09-19T14:48:31;-11650.84;;;-142.29;42.00
7748;BME280;3918;42.564;23.164;2022-09-19T14:51:16;-11650.84;;;-142.29;42.82
7748;BME280;3918;42.564;23.164;2022-09-19T14:53:47;-11650.84;;;-142.29;42.66
7748;BME280;3918;42.564;23.164;2022-09-19T14:56:17;-11650.84;;;-142.29;42.41
7748;BME280;3918;42.564;23.164;2022-09-19T14:58:49;-11650.84;;;-142.29;42.64
7748;BME280;3918;42.564;23.164;2022-09-19T15:01:24;-11650.84;;;-142.29;42.73
7748;BME280;3918;42.564;23.164;2022-09-19T15:03:55;-11650.84;;;-142.29;42.78
7748;BME280;3918;42.564;23.164;2022-09-19T15:06:29;-11650.84;;;-142.29;42.32
7748;BME280;3918;42.564;23.164;2022-09-19T15:08:56;-11650.84;;;-142.29;43.39
7748;BME280;3918;42.564;23.164;2022-09-19T15:11:23;-11650.84;;;-142.29;42.97
7748;BME280;3918;42.564;23.164;2022-09-19T15:13:51;-11650.84;;;-142.29;42.83
7748;BME280;3918;42.564;23.164;2022-09-19T15:16:21;-11650.84;;;-142.29;42.78
7748;BME280;3918;42.564;23.164;2022-09-19T15:18:49;-11650.84;;;-142.29;43.25
7748;BME280;3918;42.564;23.164;2022-09-19T15:21:19;-11650.84;;;-142.29;43.50
7748;BME280;3918;42.564;23.164;2022-09-19T15:23:47;-11650.84;;;-142.29;43.05
7748;BME280;3918;42.564;23.164;2022-09-19T15:26:17;-11650.84;;;-142.29;43.30
7748;BME280;3918;42.564;23.164;2022-09-19T15:28:54;-11650.84;;;-142.29;43.49
7748;BME280;3918;42.564;23.164;2022-09-19T15:31:24;-11650.84;;;-142.29;43.89
7748;BME280;3918;42.564;23.164;2022-09-19T15:33:57;-11650.84;;;-142.29;44.05
7748;BME280;3918;42.564;23.164;2022-09-19T15:36:27;-11650.84;;;-142.29;43.81
7748;BME280;3918;42.564;23.164;2022-09-19T15:38:56;-11650.84;;;-142.29;43.87
7748;BME280;3918;42.564;23.164;2022-09-19T15:41:25;-11650.84;;;-142.29;44.65
7748;BME280;3918;42.564;23.164;2022-09-19T15:43:54;-11650.84;;;-142.29;44.90
7748;BME280;3918;42.564;23.164;2022-09-19T15:46:46;-11650.84;;;-142.29;44.87
7748;BME280;3918;42.564;23.164;2022-09-19T15:49:26;-11650.84;;;-142.29;44.50
7748;BME280;3918;42.564;23.164;2022-09-19T15:51:56;-11650.84;;;-142.29;45.24
7748;BME280;3918;42.564;23.164;2022-09-19T15:54:25;-11650.84;;;-142.29;44.79
7748;BME280;3918;42.564;23.164;2022-09-19T15:56:57;-11650.84;;;-142.29;45.33
7748;BME280;3918;42.564;23.164;2022-09-19T15:59:26;-11650.84;;;-142.29;45.49
7748;BME280;3918;42.564;23.164;2022-09-19T16:01:59;-11650.84;;;-142.29;46.32
7748;BME280;3918;42.564;23.164;2022-09-19T16:04:32;-11650.84;;;-142.29;46.79
7748;BME280;3918;42.564;23.164;2022-09-19T16:06:59;-11650.84;;;-142.29;46.98
7748;BME280;3918;42.564;23.164;2022-09-19T16:09:46;-11650.84;;;-142.29;46.52
7748;BME280;3918;42.564;23.164;2022-09-19T16:12:32;-11650.84;;;-142.29;47.32
7748;BME280;3918;42.564;23.164;2022-09-19T16:15:01;-11650.84;;;-142.29;47.50
7748;BME280;3918;42.564;23.164;2022-09-19T16:20:37;-11650.84;;;-142.29;48.65
7748;BME280;3918;42.564;23.164;2022-09-19T16:23:09;-11650.84;;;-142.29;49.00
7748;BME280;3918;42.564;23.164;2022-09-19T16:25:42;-11650.84;;;-142.29;49.52
7748;BME280;3918;42.564;23.164;2022-09-19T16:28:11;-11650.84;;;-142.29;49.72
7748;BME280;3918;42.564;23.164;2022-09-19T16:30:49;-11650.84;;;-142.29;48.90
7748;BME280;3918;42.564;23.164;2022-09-19T16:33:17;-11650.84;;;-142.29;49.24
7748;BME280;3918;42.564;23.164;2022-09-19T16:35:50;-11650.84;;;-142.29;50.37
7748;BME280;3918;42.564;23.164;2022-09-19T16:38:24;-11650.84;;;-142.29;51.82
7748;BME280;3918;42.564;23.164;2022-09-19T16:40:56;-11650.84;;;-142.29;51.56
7748;BME280;3918;42.564;23.164;2022-09-19T16:43:53;-11650.84;;;-142.29;51.10
7748;BME280;3918;42.564;23.164;2022-09-19T16:46:24;-11650.84;;;-142.29;51.78
7748;BME280;3918;42.564;23.164;2022-09-19T16:48:51;-11650.84;;;-142.29;52.86
7748;BME280;3918;42.564;23.164;2022-09-19T16:51:19;-11650.84;;;-142.29;52.97
7748;BME280;3918;42.564;23.164;2022-09-19T16:53:47;-11650.84;;;-142.29;53.19
7748;BME280;3918;42.564;23.164;2022-09-19T16:56:15;-11650.84;;;-142.29;55.86
7748;BME280;3918;42.564;23.164;2022-09-19T16:58:43;-11650.84;;;-142.29;56.32
7748;BME280;3918;42.564;23.164;2022-09-19T17:01:11;-11650.84;;;-142.29;63.78
7748;BME280;3918;42.564;23.164;2022-09-19T17:03:38;-11650.84;;;-142.29;67.32
7748;BME280;3918;42.564;23.164;2022-09-19T17:06:07;-11650.84;;;-142.29;68.96
7748;BME280;3918;42.564;23.164;2022-09-19T17:08:36;-11650.84;;;-142.29;70.90
7748;BME280;3918;42.564;23.164;2022-09-19T17:11:03;-11650.84;;;-142.29;72.16
7748;BME280;3918;42.564;23.164;2022-09-19T17:13:30;-11650.84;;;-142.29;73.69
7748;BME280;3918;42.564;23.164;2022-09-19T17:15:58;-11650.84;;;-142.29;76.29
7748;BME280;3918;42.564;23.164;2022-09-19T17:18:27;-11650.84;;;-142.29;77.09
7748;BME280;3918;42.564;23.164;2022-09-19T17:20:57;-11650.84;;;-142.29;77.93
7748;BME280;3918;42.564;23.164;2022-09-19T17:23:25;-11650.84;;;-142.29;78.96
7748;BME280;3918;42.564;23.164;2022-09-19T17:25:55;-11650.84;;;-142.29;79.67
7748;BME280;3918;42.564;23.164;2022-09-19T17:28:24;-11650.84;;;-142.29;80.45
7748;BME280;3918;42.564;23.164;2022-09-19T17:30:52;-11650.84;;;-142.29;80.83
7748;BME280;3918;42.564;23.164;2022-09-19T17:33:20;-11650.84;;;-142.29;80.81
7748;BME280;3918;42.564;23.164;2022-09-19T17:35:48;-11650.84;;;-142.29;80.76
7748;BME280;3918;42.564;23.164;2022-09-19T17:38:14;-11650.84;;;-142.29;79.37
7748;BME280;3918;42.564;23.164;2022-09-19T17:40:43;-11650.84;;;-142.29;79.00
7748;BME280;3918;42.564;23.164;2022-09-19T17:43:15;-11650.84;;;-142.29;79.53
7748;BME280;3918;42.564;23.164;2022-09-19T17:45:42;-11650.84;;;-142.29;81.92
7748;BME280;3918;42.564;23.164;2022-09-19T17:48:11;-11650.84;;;-142.29;83.30
7748;BME280;3918;42.564;23.164;2022-09-19T17:50:38;-11650.84;;;-142.29;83.73
7748;BME280;3918;42.564;23.164;2022-09-19T17:53:06;-11650.84;;;-142.29;84.33
7748;BME280;3918;42.564;23.164;2022-09-19T17:55:33;-11650.84;;;-142.29;83.54
7748;BME280;3918;42.564;23.164;2022-09-19T17:57:59;-11650.84;;;-142.29;82.93
7748;BME280;3918;42.564;23.164;2022-09-19T18:00:29;-11650.84;;;-142.29;80.84
7748;BME280;3918;42.564;23.164;2022-09-19T18:02:56;-11650.84;;;-142.29;79.58
7748;BME280;3918;42.564;23.164;2022-09-19T18:05:40;-11650.84;;;-142.29;78.47
7748;BME280;3918;42.564;23.164;2022-09-19T18:08:07;-11650.84;;;-142.29;77.02
7748;BME280;3918;42.564;23.164;2022-09-19T18:10:35;-11650.84;;;-142.29;76.41
7748;BME280;3918;42.564;23.164;2022-09-19T18:13:02;-11650.84;;;-142.29;74.39
7748;BME280;3918;42.564;23.164;2022-09-19T18:15:34;-11650.84;;;-142.29;73.35
7748;BME280;3918;42.564;23.164;2022-09-19T18:18:03;-11650.84;;;-142.29;72.22
7748;BME280;3918;42.564;23.164;2022-09-19T18:20:30;-11650.84;;;-142.29;74.10
7748;BME280;3918;42.564;23.164;2022-09-19T18:22:58;-11650.84;;;-142.29;80.60